createdAt,value
2018-03-31T00:02:15.173Z,73
2018-03-31T00:07:42.042Z,73
2018-03-31T00:13:09.754Z,73
2018-03-31T00:18:37.542Z,74
2018-03-31T00:24:04.351Z,74
2018-03-31T00:29:32.134Z,74
2018-03-31T00:34:59.967Z,74
2018-03-31T00:40:27.719Z,74
2018-03-31T00:45:54.501Z,74
2018-03-31T00:51:22.264Z,74
2018-03-31T00:56:50.076Z,74
2018-03-31T01:02:17.940Z,74
2018-03-31T01:07:44.708Z,74
2018-03-31T01:13:11.447Z,74
2018-03-31T01:18:39.222Z,75
2018-03-31T01:24:07.006Z,75
2018-03-31T01:29:34.772Z,75
2018-03-31T01:35:02.580Z,75
2018-03-31T01:40:29.305Z,75
2018-03-31T01:45:56.067Z,75
2018-03-31T01:51:22.894Z,75
2018-03-31T01:56:50.606Z,75
2018-03-31T02:02:18.467Z,75
2018-03-31T02:07:45.168Z,75
2018-03-31T02:13:11.933Z,75
2018-03-31T02:18:38.770Z,75
2018-03-31T02:24:06.498Z,75
2018-03-31T02:29:34.246Z,75
2018-03-31T02:35:01.051Z,75
2018-03-31T02:40:27.834Z,75
2018-03-31T02:40:29.086Z,75
2018-03-31T02:45:55.528Z,75
2018-03-31T02:51:23.328Z,76
2018-03-31T02:56:51.061Z,76
2018-03-31T03:02:17.891Z,76
2018-03-31T03:07:45.563Z,76
2018-03-31T03:13:12.407Z,76
2018-03-31T03:18:40.159Z,76
2018-03-31T03:24:06.916Z,76
2018-03-31T03:29:34.658Z,76
2018-03-31T03:35:02.451Z,76
2018-03-31T03:40:29.219Z,76
2018-03-31T03:45:56.973Z,76
2018-03-31T03:51:24.725Z,76
2018-03-31T03:56:52.559Z,76
2018-03-31T04:02:20.371Z,76
2018-03-31T04:07:48.111Z,76
2018-03-31T04:13:15.915Z,76
2018-03-31T04:18:42.659Z,76
2018-03-31T04:24:09.555Z,77
2018-03-31T04:29:37.240Z,76
2018-03-31T04:35:03.986Z,77
2018-03-31T04:40:31.777Z,77
2018-03-31T04:45:58.548Z,77
2018-03-31T04:51:25.314Z,77
2018-03-31T04:56:52.043Z,77
2018-03-31T05:02:19.183Z,77
2018-03-31T05:07:45.578Z,77
2018-03-31T05:13:12.368Z,77
2018-03-31T05:18:39.115Z,77
2018-03-31T05:24:06.955Z,77
2018-03-31T05:29:33.729Z,77
2018-03-31T05:35:00.499Z,77
2018-03-31T05:40:27.286Z,77
2018-03-31T05:45:54.032Z,77
2018-03-31T05:51:21.821Z,77
2018-03-31T05:56:48.588Z,77
2018-03-31T06:02:16.402Z,77
2018-03-31T06:07:43.177Z,77
2018-03-31T06:13:10.994Z,78
2018-03-31T06:18:38.757Z,78
2018-03-31T06:24:06.557Z,78
2018-03-31T06:29:33.358Z,78
2018-03-31T06:35:01.283Z,78
2018-03-31T06:40:28.015Z,78
2018-03-31T06:45:55.820Z,78
2018-03-31T06:51:22.604Z,78
2018-03-31T06:56:50.440Z,78
2018-03-31T07:02:18.252Z,78
2018-03-31T07:07:45.133Z,78
2018-03-31T07:13:12.894Z,78
2018-03-31T07:18:39.827Z,78
2018-03-31T07:24:06.562Z,78
2018-03-31T07:29:33.405Z,78
2018-03-31T07:35:00.248Z,78
2018-03-31T07:40:28.092Z,78
2018-03-31T07:45:54.950Z,78
2018-03-31T07:51:22.837Z,78
2018-03-31T07:56:49.675Z,78
2018-03-31T08:02:17.552Z,78
2018-03-31T08:07:44.441Z,78
2018-03-31T08:13:12.363Z,78
2018-03-31T08:18:39.258Z,78
2018-03-31T08:24:07.160Z,78
2018-03-31T08:29:34.098Z,78
2018-03-31T08:35:00.996Z,78
2018-03-31T08:40:27.886Z,78
2018-03-31T08:45:54.789Z,78
2018-03-31T08:51:21.732Z,78
2018-03-31T08:56:48.644Z,78
2018-03-31T09:02:15.498Z,78
2018-03-31T09:07:43.429Z,78
2018-03-31T09:13:11.337Z,78
2018-03-31T09:18:38.279Z,78
2018-03-31T09:24:06.148Z,77
2018-03-31T09:29:33.082Z,77
2018-03-31T09:35:01.006Z,77
2018-03-31T09:40:27.904Z,77
2018-03-31T09:45:55.822Z,77
2018-03-31T09:51:23.742Z,77
2018-03-31T09:56:50.635Z,77
2018-03-31T10:02:18.620Z,77
2018-03-31T10:07:46.499Z,77
2018-03-31T10:13:14.384Z,77
2018-03-31T10:18:41.282Z,77
2018-03-31T10:24:08.337Z,77
2018-03-31T10:29:36.132Z,77
2018-03-31T10:35:03.243Z,77
2018-03-31T10:40:29.960Z,77
2018-03-31T10:45:57.932Z,77
2018-03-31T10:51:25.836Z,77
2018-03-31T10:56:52.779Z,77
2018-03-31T11:02:19.677Z,77
2018-03-31T11:07:46.618Z,77
2018-03-31T11:13:13.546Z,77
2018-03-31T11:18:40.516Z,77
2018-03-31T11:24:08.462Z,77
2018-03-31T11:29:35.446Z,77
2018-03-31T11:35:03.436Z,77
2018-03-31T11:40:31.407Z,77
2018-03-31T11:45:58.386Z,77
2018-03-31T11:51:26.321Z,77
2018-03-31T11:56:53.338Z,77
2018-03-31T12:02:21.268Z,77
2018-03-31T12:07:48.260Z,77
2018-03-31T12:13:16.268Z,77
2018-03-31T12:18:43.220Z,77
2018-03-31T12:24:11.222Z,77
2018-03-31T12:29:39.244Z,77
2018-03-31T12:35:07.207Z,76
2018-03-31T12:40:35.314Z,76
2018-03-31T12:46:02.328Z,76
2018-03-31T12:51:30.227Z,76
2018-03-31T12:56:58.252Z,76
2018-03-31T13:02:25.200Z,76
2018-03-31T13:07:53.229Z,76
2018-03-31T13:13:21.174Z,76
2018-03-31T13:18:49.211Z,76
2018-03-31T13:24:16.193Z,76
2018-03-31T13:29:43.173Z,76
2018-03-31T13:35:11.187Z,75
2018-03-31T13:40:39.228Z,76
2018-03-31T13:46:07.199Z,75
2018-03-31T13:51:34.439Z,75
2018-03-31T13:57:02.218Z,75
2018-03-31T14:02:29.214Z,75
2018-03-31T14:07:56.221Z,75
2018-03-31T14:13:23.259Z,75
2018-03-31T14:18:50.334Z,75
2018-03-31T14:24:17.310Z,75
2018-03-31T14:29:44.265Z,75
2018-03-31T14:35:12.276Z,75
2018-03-31T14:40:40.247Z,75
2018-03-31T14:46:07.245Z,75
2018-03-31T14:51:34.219Z,75
2018-03-31T14:57:02.213Z,75
2018-03-31T15:02:30.198Z,75
2018-03-31T15:07:57.195Z,75
2018-03-31T15:13:25.192Z,75
2018-03-31T15:18:52.145Z,75
2018-03-31T15:24:19.101Z,75
2018-03-31T15:29:46.156Z,75
2018-03-31T15:35:12.983Z,75
2018-03-31T15:40:40.903Z,75
2018-03-31T15:46:08.844Z,75
2018-03-31T15:51:36.754Z,75
2018-03-31T15:57:04.720Z,75
2018-03-31T16:02:31.627Z,75
2018-03-31T16:07:58.538Z,75
2018-03-31T16:13:26.487Z,75
2018-03-31T16:18:54.419Z,75
2018-03-31T16:24:22.264Z,75
2018-03-31T16:29:50.188Z,75
2018-03-31T16:35:18.067Z,75
2018-03-31T16:40:46.045Z,75
2018-03-31T16:46:13.835Z,75
2018-03-31T16:51:41.699Z,75
2018-03-31T16:57:09.574Z,75
2018-03-31T17:02:36.475Z,75
2018-03-31T17:08:04.358Z,75
2018-03-31T17:13:31.190Z,75
2018-03-31T17:18:58.132Z,75
2018-03-31T17:24:24.948Z,75
2018-03-31T17:29:51.815Z,75
2018-03-31T17:35:19.704Z,75
2018-03-31T17:40:47.525Z,75
2018-03-31T17:46:15.354Z,76
2018-03-31T17:51:43.240Z,76
2018-03-31T17:57:10.105Z,76
2018-03-31T18:02:37.000Z,76
2018-03-31T18:08:04.776Z,76
2018-03-31T18:13:31.645Z,76
2018-03-31T18:18:58.443Z,76
2018-03-31T18:24:25.296Z,76
2018-03-31T18:29:53.133Z,76
2018-03-31T18:35:19.956Z,76
2018-03-31T18:40:47.803Z,76
2018-03-31T18:46:15.647Z,76
2018-03-31T18:51:43.463Z,76
2018-03-31T18:57:11.304Z,76
2018-03-31T19:02:39.132Z,76
2018-03-31T19:08:06.956Z,76
2018-03-31T19:13:34.787Z,76
2018-03-31T19:19:01.616Z,76
2018-03-31T19:24:29.439Z,76
2018-03-31T19:29:57.216Z,76
2018-03-31T19:35:25.215Z,76
2018-03-31T19:40:51.867Z,76
2018-03-31T19:46:18.702Z,77
2018-03-31T19:51:45.555Z,77
2018-03-31T19:57:12.364Z,77
2018-03-31T20:02:39.136Z,77
2018-03-31T20:08:05.966Z,77
2018-03-31T20:13:32.785Z,77
2018-03-31T20:18:59.629Z,77
2018-03-31T20:24:26.382Z,77
2018-03-31T20:29:53.180Z,77
2018-03-31T20:35:19.984Z,77
2018-03-31T20:40:46.917Z,77
2018-03-31T20:46:13.600Z,77
2018-03-31T20:51:40.414Z,78
2018-03-31T20:57:08.247Z,78
2018-03-31T21:02:34.980Z,78
2018-03-31T21:08:01.999Z,78
2018-03-31T21:08:04.217Z,78
2018-03-31T21:13:29.542Z,78
2018-03-31T21:18:56.328Z,78
2018-03-31T21:24:23.153Z,78
2018-03-31T21:29:49.852Z,78
2018-03-31T21:35:17.707Z,79
2018-03-31T21:40:44.319Z,79
2018-03-31T21:46:12.133Z,79
2018-03-31T21:51:38.887Z,79
2018-03-31T21:57:06.681Z,79
2018-03-31T22:02:33.404Z,79
2018-03-31T22:08:01.200Z,79
2018-03-31T22:13:28.953Z,79
2018-03-31T22:18:56.689Z,79
2018-03-31T22:24:23.478Z,80
2018-03-31T22:29:50.259Z,80
2018-03-31T22:35:17.021Z,80
2018-03-31T22:40:44.852Z,80
2018-03-31T22:46:11.560Z,80
2018-03-31T22:51:38.329Z,80
2018-03-31T22:57:06.097Z,80
2018-03-31T23:02:33.992Z,80
2018-03-31T23:08:01.737Z,80
2018-03-31T23:13:28.345Z,80
2018-03-31T23:18:56.090Z,80
2018-03-31T23:24:23.856Z,80
2018-03-31T23:29:50.680Z,81
2018-03-31T23:35:18.475Z,81
2018-03-31T23:40:45.180Z,81
2018-03-31T23:46:12.790Z,81
2018-03-31T23:51:40.526Z,81
2018-03-31T23:57:07.462Z,81
